sensor_id;sensor_type;location;lat;lon;timestamp;P1;durP1;ratioP1;P2;durP2;ratioP2
77010;SDS011;65945;53.148;17.956;2023-10-31T00:00:34;32.60;;;16.20;;
77010;SDS011;65945;53.148;17.956;2023-10-31T00:03:20;28.70;;;15.60;;
77010;SDS011;65945;53.148;17.956;2023-10-31T00:05:47;40.70;;;17.00;;
77010;SDS011;65945;53.148;17.956;2023-10-31T00:08:13;29.50;;;15.30;;
77010;SDS011;65945;53.148;17.956;2023-10-31T00:10:40;32.80;;;16.00;;
77010;SDS011;65945;53.148;17.956;2023-10-31T00:13:10;31.80;;;14.60;;
77010;SDS011;65945;53.148;17.956;2023-10-31T00:15:38;30.70;;;15.30;;
77010;SDS011;65945;53.148;17.956;2023-10-31T00:18:04;31.00;;;15.00;;
77010;SDS011;65945;53.148;17.956;2023-10-31T00:20:31;35.40;;;16.20;;
77010;SDS011;65945;53.148;17.956;2023-10-31T00:22:57;33.10;;;15.50;;
77010;SDS011;65945;53.148;17.956;2023-10-31T00:25:24;29.10;;;14.70;;
77010;SDS011;65945;53.148;17.956;2023-10-31T00:27:50;29.40;;;14.60;;
77010;SDS011;65945;53.148;17.956;2023-10-31T00:30:17;27.90;;;14.90;;
77010;SDS011;65945;53.148;17.956;2023-10-31T00:32:44;31.20;;;15.40;;
77010;SDS011;65945;53.148;17.956;2023-10-31T00:35:11;27.00;;;15.10;;
77010;SDS011;65945;53.148;17.956;2023-10-31T00:37:38;33.70;;;16.20;;
77010;SDS011;65945;53.148;17.956;2023-10-31T00:40:08;29.20;;;16.10;;
77010;SDS011;65945;53.148;17.956;2023-10-31T00:42:38;30.00;;;16.10;;
77010;SDS011;65945;53.148;17.956;2023-10-31T00:45:07;29.60;;;16.10;;
77010;SDS011;65945;53.148;17.956;2023-10-31T00:47:34;30.20;;;16.10;;
77010;SDS011;65945;53.148;17.956;2023-10-31T00:50:01;31.10;;;16.60;;
77010;SDS011;65945;53.148;17.956;2023-10-31T00:52:29;29.90;;;15.70;;
77010;SDS011;65945;53.148;17.956;2023-10-31T00:54:56;31.10;;;16.60;;
77010;SDS011;65945;53.148;17.956;2023-10-31T00:57:22;28.90;;;15.10;;
77010;SDS011;65945;53.148;17.956;2023-10-31T00:59:49;26.10;;;15.70;;
77010;SDS011;65945;53.148;17.956;2023-10-31T01:02:16;29.40;;;15.50;;
77010;SDS011;65945;53.148;17.956;2023-10-31T01:04:42;25.20;;;15.40;;
77010;SDS011;65945;53.148;17.956;2023-10-31T01:07:09;30.70;;;17.20;;
77010;SDS011;65945;53.148;17.956;2023-10-31T01:09:38;28.90;;;16.40;;
77010;SDS011;65945;53.148;17.956;2023-10-31T01:12:05;28.40;;;16.00;;
77010;SDS011;65945;53.148;17.956;2023-10-31T01:14:32;26.50;;;15.70;;
77010;SDS011;65945;53.148;17.956;2023-10-31T01:16:58;26.70;;;16.00;;
77010;SDS011;65945;53.148;17.956;2023-10-31T01:19:25;27.90;;;16.30;;
77010;SDS011;65945;53.148;17.956;2023-10-31T01:21:51;28.50;;;15.90;;
77010;SDS011;65945;53.148;17.956;2023-10-31T01:24:18;25.60;;;14.40;;
77010;SDS011;65945;53.148;17.956;2023-10-31T01:26:44;27.70;;;15.30;;
77010;SDS011;65945;53.148;17.956;2023-10-31T01:29:11;28.30;;;14.70;;
77010;SDS011;65945;53.148;17.956;2023-10-31T01:31:40;28.00;;;15.20;;
77010;SDS011;65945;53.148;17.956;2023-10-31T01:34:07;35.50;;;18.60;;
77010;SDS011;65945;53.148;17.956;2023-10-31T01:36:34;32.60;;;16.70;;
77010;SDS011;65945;53.148;17.956;2023-10-31T01:39:01;24.70;;;15.50;;
77010;SDS011;65945;53.148;17.956;2023-10-31T01:41:28;27.30;;;15.90;;
77010;SDS011;65945;53.148;17.956;2023-10-31T01:43:54;29.50;;;16.70;;
77010;SDS011;65945;53.148;17.956;2023-10-31T01:46:21;31.10;;;15.70;;
77010;SDS011;65945;53.148;17.956;2023-10-31T01:48:48;29.80;;;15.20;;
77010;SDS011;65945;53.148;17.956;2023-10-31T01:51:15;32.00;;;15.90;;
77010;SDS011;65945;53.148;17.956;2023-10-31T01:53:41;28.70;;;14.30;;
77010;SDS011;65945;53.148;17.956;2023-10-31T01:56:08;27.90;;;15.90;;
77010;SDS011;65945;53.148;17.956;2023-10-31T01:58:35;29.40;;;14.70;;
77010;SDS011;65945;53.148;17.956;2023-10-31T02:01:03;27.30;;;16.10;;
77010;SDS011;65945;53.148;17.956;2023-10-31T02:03:31;25.80;;;15.30;;
77010;SDS011;65945;53.148;17.956;2023-10-31T02:05:59;27.00;;;15.50;;
77010;SDS011;65945;53.148;17.956;2023-10-31T02:08:26;29.30;;;15.90;;
77010;SDS011;65945;53.148;17.956;2023-10-31T02:10:52;31.50;;;16.20;;
77010;SDS011;65945;53.148;17.956;2023-10-31T02:13:19;34.50;;;18.20;;
77010;SDS011;65945;53.148;17.956;2023-10-31T02:15:46;52.60;;;26.50;;
77010;SDS011;65945;53.148;17.956;2023-10-31T02:18:12;39.80;;;20.90;;
77010;SDS011;65945;53.148;17.956;2023-10-31T02:20:39;33.80;;;18.50;;
77010;SDS011;65945;53.148;17.956;2023-10-31T02:23:06;39.60;;;19.40;;
77010;SDS011;65945;53.148;17.956;2023-10-31T02:25:33;27.80;;;16.90;;
77010;SDS011;65945;53.148;17.956;2023-10-31T02:28:00;28.70;;;15.10;;
77010;SDS011;65945;53.148;17.956;2023-10-31T02:30:26;22.30;;;14.00;;
77010;SDS011;65945;53.148;17.956;2023-10-31T02:32:53;24.80;;;13.80;;
77010;SDS011;65945;53.148;17.956;2023-10-31T02:35:20;23.50;;;13.50;;
77010;SDS011;65945;53.148;17.956;2023-10-31T02:37:47;21.00;;;12.30;;
77010;SDS011;65945;53.148;17.956;2023-10-31T02:40:14;22.30;;;13.10;;
77010;SDS011;65945;53.148;17.956;2023-10-31T02:42:41;21.50;;;13.20;;
77010;SDS011;65945;53.148;17.956;2023-10-31T02:45:07;22.40;;;14.40;;
77010;SDS011;65945;53.148;17.956;2023-10-31T02:47:34;24.10;;;14.20;;
77010;SDS011;65945;53.148;17.956;2023-10-31T02:50:02;20.50;;;13.20;;
77010;SDS011;65945;53.148;17.956;2023-10-31T02:52:29;24.70;;;13.20;;
77010;SDS011;65945;53.148;17.956;2023-10-31T02:54:55;19.80;;;12.40;;
77010;SDS011;65945;53.148;17.956;2023-10-31T02:57:22;21.60;;;12.90;;
77010;SDS011;65945;53.148;17.956;2023-10-31T02:59:49;19.20;;;12.20;;
77010;SDS011;65945;53.148;17.956;2023-10-31T03:02:16;21.70;;;11.50;;
77010;SDS011;65945;53.148;17.956;2023-10-31T03:04:42;23.10;;;13.40;;
77010;SDS011;65945;53.148;17.956;2023-10-31T03:07:09;21.40;;;11.70;;
77010;SDS011;65945;53.148;17.956;2023-10-31T03:09:35;20.60;;;12.50;;
77010;SDS011;65945;53.148;17.956;2023-10-31T03:12:03;24.50;;;13.30;;
77010;SDS011;65945;53.148;17.956;2023-10-31T03:14:30;19.70;;;13.40;;
77010;SDS011;65945;53.148;17.956;2023-10-31T03:16:57;21.80;;;12.20;;
77010;SDS011;65945;53.148;17.956;2023-10-31T03:19:23;22.70;;;12.80;;
77010;SDS011;65945;53.148;17.956;2023-10-31T03:21:50;22.30;;;11.80;;
77010;SDS011;65945;53.148;17.956;2023-10-31T03:24:16;22.80;;;12.30;;
77010;SDS011;65945;53.148;17.956;2023-10-31T03:26:43;18.00;;;11.50;;
77010;SDS011;65945;53.148;17.956;2023-10-31T03:29:10;20.00;;;11.60;;
77010;SDS011;65945;53.148;17.956;2023-10-31T03:31:39;17.40;;;10.80;;
77010;SDS011;65945;53.148;17.956;2023-10-31T03:34:05;18.70;;;10.40;;
77010;SDS011;65945;53.148;17.956;2023-10-31T03:36:32;17.20;;;11.70;;
77010;SDS011;65945;53.148;17.956;2023-10-31T03:38:59;21.00;;;11.40;;
77010;SDS011;65945;53.148;17.956;2023-10-31T03:41:25;19.10;;;10.30;;
77010;SDS011;65945;53.148;17.956;2023-10-31T03:43:52;16.10;;;10.40;;
77010;SDS011;65945;53.148;17.956;2023-10-31T03:46:18;19.40;;;11.10;;
77010;SDS011;65945;53.148;17.956;2023-10-31T03:48:48;16.30;;;10.30;;
77010;SDS011;65945;53.148;17.956;2023-10-31T03:51:16;23.00;;;9.10;;
77010;SDS011;65945;53.148;17.956;2023-10-31T03:53:43;16.50;;;8.90;;
77010;SDS011;65945;53.148;17.956;2023-10-31T03:56:10;16.90;;;8.90;;
77010;SDS011;65945;53.148;17.956;2023-10-31T03:58:36;15.50;;;8.80;;
77010;SDS011;65945;53.148;17.956;2023-10-31T04:01:03;20.30;;;10.20;;
77010;SDS011;65945;53.148;17.956;2023-10-31T04:03:30;20.60;;;11.20;;
77010;SDS011;65945;53.148;17.956;2023-10-31T04:05:56;17.80;;;9.60;;
77010;SDS011;65945;53.148;17.956;2023-10-31T04:08:23;16.60;;;8.90;;
77010;SDS011;65945;53.148;17.956;2023-10-31T04:10:49;18.80;;;8.70;;
77010;SDS011;65945;53.148;17.956;2023-10-31T04:13:16;16.40;;;8.10;;
77010;SDS011;65945;53.148;17.956;2023-10-31T04:15:42;17.90;;;8.80;;
77010;SDS011;65945;53.148;17.956;2023-10-31T04:18:09;15.90;;;7.80;;
77010;SDS011;65945;53.148;17.956;2023-10-31T04:20:36;18.70;;;9.10;;
77010;SDS011;65945;53.148;17.956;2023-10-31T04:23:02;15.20;;;7.90;;
77010;SDS011;65945;53.148;17.956;2023-10-31T04:25:29;14.50;;;7.40;;
77010;SDS011;65945;53.148;17.956;2023-10-31T04:27:55;11.50;;;7.30;;
77010;SDS011;65945;53.148;17.956;2023-10-31T04:30:22;14.60;;;7.90;;
77010;SDS011;65945;53.148;17.956;2023-10-31T04:32:48;15.80;;;8.00;;
77010;SDS011;65945;53.148;17.956;2023-10-31T04:35:15;15.90;;;8.20;;
77010;SDS011;65945;53.148;17.956;2023-10-31T04:37:42;16.30;;;7.90;;
77010;SDS011;65945;53.148;17.956;2023-10-31T04:40:08;11.50;;;7.30;;
77010;SDS011;65945;53.148;17.956;2023-10-31T04:42:38;15.90;;;8.20;;
77010;SDS011;65945;53.148;17.956;2023-10-31T04:45:05;18.00;;;8.60;;
77010;SDS011;65945;53.148;17.956;2023-10-31T04:47:32;18.80;;;8.80;;
77010;SDS011;65945;53.148;17.956;2023-10-31T04:49:59;13.50;;;8.40;;
77010;SDS011;65945;53.148;17.956;2023-10-31T04:52:26;20.10;;;9.50;;
77010;SDS011;65945;53.148;17.956;2023-10-31T04:54:52;15.90;;;8.70;;
77010;SDS011;65945;53.148;17.956;2023-10-31T04:57:19;13.40;;;7.60;;
77010;SDS011;65945;53.148;17.956;2023-10-31T04:59:45;13.50;;;7.80;;
77010;SDS011;65945;53.148;17.956;2023-10-31T05:02:12;16.60;;;8.00;;
77010;SDS011;65945;53.148;17.956;2023-10-31T05:04:39;12.60;;;7.00;;
77010;SDS011;65945;53.148;17.956;2023-10-31T05:07:06;16.60;;;8.00;;
77010;SDS011;65945;53.148;17.956;2023-10-31T05:09:33;15.20;;;7.90;;
77010;SDS011;65945;53.148;17.956;2023-10-31T05:12:00;15.30;;;7.40;;
77010;SDS011;65945;53.148;17.956;2023-10-31T05:14:26;16.30;;;7.80;;
77010;SDS011;65945;53.148;17.956;2023-10-31T05:16:53;13.90;;;8.40;;
77010;SDS011;65945;53.148;17.956;2023-10-31T05:19:19;12.70;;;8.00;;
77010;SDS011;65945;53.148;17.956;2023-10-31T05:21:46;17.00;;;8.20;;
77010;SDS011;65945;53.148;17.956;2023-10-31T05:24:13;14.50;;;7.50;;
77010;SDS011;65945;53.148;17.956;2023-10-31T05:26:39;13.40;;;7.90;;
77010;SDS011;65945;53.148;17.956;2023-10-31T05:29:09;12.90;;;7.80;;
77010;SDS011;65945;53.148;17.956;2023-10-31T05:31:36;16.10;;;7.40;;
77010;SDS011;65945;53.148;17.956;2023-10-31T05:34:02;13.90;;;7.40;;
77010;SDS011;65945;53.148;17.956;2023-10-31T05:36:33;18.90;;;7.20;;
77010;SDS011;65945;53.148;17.956;2023-10-31T05:38:59;17.20;;;8.20;;
77010;SDS011;65945;53.148;17.956;2023-10-31T05:41:26;14.30;;;7.60;;
77010;SDS011;65945;53.148;17.956;2023-10-31T05:43:53;11.90;;;7.60;;
77010;SDS011;65945;53.148;17.956;2023-10-31T05:46:19;12.30;;;6.60;;
77010;SDS011;65945;53.148;17.956;2023-10-31T05:48:46;12.50;;;7.10;;
77010;SDS011;65945;53.148;17.956;2023-10-31T05:51:16;12.00;;;6.90;;
77010;SDS011;65945;53.148;17.956;2023-10-31T05:53:46;11.20;;;6.90;;
77010;SDS011;65945;53.148;17.956;2023-10-31T05:56:14;15.40;;;7.90;;
77010;SDS011;65945;53.148;17.956;2023-10-31T05:58:41;12.80;;;7.00;;
77010;SDS011;65945;53.148;17.956;2023-10-31T06:01:09;13.10;;;6.70;;
77010;SDS011;65945;53.148;17.956;2023-10-31T06:03:36;15.50;;;7.20;;
77010;SDS011;65945;53.148;17.956;2023-10-31T06:06:03;12.30;;;7.50;;
77010;SDS011;65945;53.148;17.956;2023-10-31T06:08:31;14.60;;;7.00;;
77010;SDS011;65945;53.148;17.956;2023-10-31T06:10:57;12.40;;;6.80;;
77010;SDS011;65945;53.148;17.956;2023-10-31T06:13:24;11.50;;;5.70;;
77010;SDS011;65945;53.148;17.956;2023-10-31T06:15:54;14.10;;;6.30;;
77010;SDS011;65945;53.148;17.956;2023-10-31T06:18:21;14.90;;;6.00;;
77010;SDS011;65945;53.148;17.956;2023-10-31T06:20:48;12.70;;;6.20;;
77010;SDS011;65945;53.148;17.956;2023-10-31T06:23:14;15.20;;;7.10;;
77010;SDS011;65945;53.148;17.956;2023-10-31T06:25:41;17.10;;;6.80;;
77010;SDS011;65945;53.148;17.956;2023-10-31T06:28:07;12.30;;;5.90;;
77010;SDS011;65945;53.148;17.956;2023-10-31T06:30:34;15.10;;;6.20;;
77010;SDS011;65945;53.148;17.956;2023-10-31T06:33:01;14.00;;;6.30;;
77010;SDS011;65945;53.148;17.956;2023-10-31T06:35:28;14.30;;;6.10;;
77010;SDS011;65945;53.148;17.956;2023-10-31T06:37:56;12.20;;;5.70;;
77010;SDS011;65945;53.148;17.956;2023-10-31T06:40:26;14.00;;;6.30;;
77010;SDS011;65945;53.148;17.956;2023-10-31T06:42:52;16.40;;;7.60;;
77010;SDS011;65945;53.148;17.956;2023-10-31T06:45:19;12.70;;;6.20;;
77010;SDS011;65945;53.148;17.956;2023-10-31T06:47:46;17.00;;;6.50;;
77010;SDS011;65945;53.148;17.956;2023-10-31T06:50:12;14.80;;;6.50;;
77010;SDS011;65945;53.148;17.956;2023-10-31T06:52:39;11.70;;;6.10;;
77010;SDS011;65945;53.148;17.956;2023-10-31T06:55:05;14.80;;;6.30;;
77010;SDS011;65945;53.148;17.956;2023-10-31T06:57:32;19.80;;;6.90;;
77010;SDS011;65945;53.148;17.956;2023-10-31T06:59:59;10.50;;;5.80;;
77010;SDS011;65945;53.148;17.956;2023-10-31T07:02:25;11.10;;;5.40;;
77010;SDS011;65945;53.148;17.956;2023-10-31T07:04:52;14.50;;;5.90;;
77010;SDS011;65945;53.148;17.956;2023-10-31T07:07:19;13.00;;;6.60;;
77010;SDS011;65945;53.148;17.956;2023-10-31T07:09:45;11.70;;;6.00;;
77010;SDS011;65945;53.148;17.956;2023-10-31T07:12:12;10.90;;;6.00;;
77010;SDS011;65945;53.148;17.956;2023-10-31T07:14:38;14.30;;;6.60;;
77010;SDS011;65945;53.148;17.956;2023-10-31T07:17:05;13.30;;;5.90;;
77010;SDS011;65945;53.148;17.956;2023-10-31T07:19:32;13.70;;;5.90;;
77010;SDS011;65945;53.148;17.956;2023-10-31T07:21:58;14.10;;;6.20;;
77010;SDS011;65945;53.148;17.956;2023-10-31T07:24:25;15.50;;;6.40;;
77010;SDS011;65945;53.148;17.956;2023-10-31T07:26:54;15.40;;;6.60;;
77010;SDS011;65945;53.148;17.956;2023-10-31T07:29:21;16.00;;;6.40;;
77010;SDS011;65945;53.148;17.956;2023-10-31T07:31:48;12.60;;;5.60;;
77010;SDS011;65945;53.148;17.956;2023-10-31T07:34:14;14.20;;;6.70;;
77010;SDS011;65945;53.148;17.956;2023-10-31T07:36:42;16.60;;;6.50;;
77010;SDS011;65945;53.148;17.956;2023-10-31T07:39:08;13.30;;;6.50;;
77010;SDS011;65945;53.148;17.956;2023-10-31T07:41:35;14.90;;;6.80;;
77010;SDS011;65945;53.148;17.956;2023-10-31T07:44:01;12.80;;;6.70;;
77010;SDS011;65945;53.148;17.956;2023-10-31T07:46:28;13.30;;;6.90;;
77010;SDS011;65945;53.148;17.956;2023-10-31T07:48:55;14.20;;;8.10;;
77010;SDS011;65945;53.148;17.956;2023-10-31T07:51:21;14.70;;;7.50;;
77010;SDS011;65945;53.148;17.956;2023-10-31T07:53:48;15.60;;;7.30;;
77010;SDS011;65945;53.148;17.956;2023-10-31T07:56:15;15.70;;;7.20;;
77010;SDS011;65945;53.148;17.956;2023-10-31T07:58:42;10.20;;;6.80;;
77010;SDS011;65945;53.148;17.956;2023-10-31T08:01:09;18.70;;;8.70;;
77010;SDS011;65945;53.148;17.956;2023-10-31T08:03:37;19.40;;;9.50;;
77010;SDS011;65945;53.148;17.956;2023-10-31T08:06:05;17.30;;;10.60;;
77010;SDS011;65945;53.148;17.956;2023-10-31T08:08:32;18.50;;;11.00;;
77010;SDS011;65945;53.148;17.956;2023-10-31T08:11:00;18.20;;;9.80;;
77010;SDS011;65945;53.148;17.956;2023-10-31T08:13:27;16.40;;;8.80;;
77010;SDS011;65945;53.148;17.956;2023-10-31T08:15:53;15.80;;;9.10;;
77010;SDS011;65945;53.148;17.956;2023-10-31T08:18:21;14.60;;;8.60;;
77010;SDS011;65945;53.148;17.956;2023-10-31T08:20:49;14.40;;;7.50;;
77010;SDS011;65945;53.148;17.956;2023-10-31T08:23:17;14.60;;;7.70;;
77010;SDS011;65945;53.148;17.956;2023-10-31T08:25:44;14.00;;;6.90;;
77010;SDS011;65945;53.148;17.956;2023-10-31T08:28:11;15.00;;;7.50;;
77010;SDS011;65945;53.148;17.956;2023-10-31T08:30:38;14.30;;;7.40;;
77010;SDS011;65945;53.148;17.956;2023-10-31T08:33:05;13.30;;;7.40;;
77010;SDS011;65945;53.148;17.956;2023-10-31T08:35:32;12.30;;;6.60;;
77010;SDS011;65945;53.148;17.956;2023-10-31T08:37:59;11.90;;;7.60;;
77010;SDS011;65945;53.148;17.956;2023-10-31T08:40:25;14.00;;;7.80;;
77010;SDS011;65945;53.148;17.956;2023-10-31T08:42:52;14.50;;;7.60;;
77010;SDS011;65945;53.148;17.956;2023-10-31T08:45:19;13.80;;;7.90;;
77010;SDS011;65945;53.148;17.956;2023-10-31T08:47:45;15.80;;;7.70;;
77010;SDS011;65945;53.148;17.956;2023-10-31T08:50:12;12.70;;;7.20;;
77010;SDS011;65945;53.148;17.956;2023-10-31T08:52:40;13.10;;;7.90;;
77010;SDS011;65945;53.148;17.956;2023-10-31T08:55:06;13.60;;;8.30;;
77010;SDS011;65945;53.148;17.956;2023-10-31T08:57:33;11.30;;;7.40;;
77010;SDS011;65945;53.148;17.956;2023-10-31T09:00:01;12.10;;;7.20;;
77010;SDS011;65945;53.148;17.956;2023-10-31T09:02:27;12.50;;;6.60;;
77010;SDS011;65945;53.148;17.956;2023-10-31T09:04:54;10.20;;;6.80;;
77010;SDS011;65945;53.148;17.956;2023-10-31T09:07:21;9.90;;;6.60;;
77010;SDS011;65945;53.148;17.956;2023-10-31T09:09:48;10.50;;;6.10;;
77010;SDS011;65945;53.148;17.956;2023-10-31T09:12:14;10.10;;;6.60;;
77010;SDS011;65945;53.148;17.956;2023-10-31T09:14:41;7.30;;;4.80;;
77010;SDS011;65945;53.148;17.956;2023-10-31T09:17:08;10.90;;;6.40;;
77010;SDS011;65945;53.148;17.956;2023-10-31T09:19:35;10.80;;;6.70;;
77010;SDS011;65945;53.148;17.956;2023-10-31T09:22:01;8.40;;;6.50;;
77010;SDS011;65945;53.148;17.956;2023-10-31T09:24:28;12.50;;;6.60;;
77010;SDS011;65945;53.148;17.956;2023-10-31T09:26:54;14.50;;;7.60;;
77010;SDS011;65945;53.148;17.956;2023-10-31T09:29:21;12.00;;;7.40;;
77010;SDS011;65945;53.148;17.956;2023-10-31T09:31:48;10.60;;;6.90;;
77010;SDS011;65945;53.148;17.956;2023-10-31T09:34:15;11.40;;;7.40;;
77010;SDS011;65945;53.148;17.956;2023-10-31T09:36:41;11.30;;;6.70;;
77010;SDS011;65945;53.148;17.956;2023-10-31T09:39:08;11.40;;;7.90;;
77010;SDS011;65945;53.148;17.956;2023-10-31T09:41:35;11.30;;;7.80;;
77010;SDS011;65945;53.148;17.956;2023-10-31T09:44:02;13.90;;;7.90;;
77010;SDS011;65945;53.148;17.956;2023-10-31T09:46:29;11.80;;;7.80;;
77010;SDS011;65945;53.148;17.956;2023-10-31T09:48:56;11.00;;;7.00;;
77010;SDS011;65945;53.148;17.956;2023-10-31T09:51:23;8.90;;;5.40;;
77010;SDS011;65945;53.148;17.956;2023-10-31T09:53:51;8.60;;;5.30;;
77010;SDS011;65945;53.148;17.956;2023-10-31T09:56:21;7.30;;;4.60;;
77010;SDS011;65945;53.148;17.956;2023-10-31T09:58:48;8.10;;;5.70;;
77010;SDS011;65945;53.148;17.956;2023-10-31T10:01:15;11.70;;;5.50;;
77010;SDS011;65945;53.148;17.956;2023-10-31T10:03:41;8.20;;;6.30;;
77010;SDS011;65945;53.148;17.956;2023-10-31T10:06:09;8.20;;;6.10;;
77010;SDS011;65945;53.148;17.956;2023-10-31T10:08:36;11.20;;;6.20;;
77010;SDS011;65945;53.148;17.956;2023-10-31T10:11:04;7.50;;;5.20;;
77010;SDS011;65945;53.148;17.956;2023-10-31T10:13:32;6.90;;;4.70;;
77010;SDS011;65945;53.148;17.956;2023-10-31T10:15:59;8.00;;;5.80;;
77010;SDS011;65945;53.148;17.956;2023-10-31T10:18:29;7.30;;;5.20;;
77010;SDS011;65945;53.148;17.956;2023-10-31T10:20:59;8.20;;;6.10;;
77010;SDS011;65945;53.148;17.956;2023-10-31T10:23:27;9.20;;;4.90;;
77010;SDS011;65945;53.148;17.956;2023-10-31T10:25:55;8.50;;;4.90;;
77010;SDS011;65945;53.148;17.956;2023-10-31T10:28:23;10.40;;;5.70;;
77010;SDS011;65945;53.148;17.956;2023-10-31T10:30:53;10.70;;;5.50;;
77010;SDS011;65945;53.148;17.956;2023-10-31T10:33:21;10.90;;;6.10;;
77010;SDS011;65945;53.148;17.956;2023-10-31T10:35:48;8.80;;;5.60;;
77010;SDS011;65945;53.148;17.956;2023-10-31T10:38:15;13.30;;;6.00;;
77010;SDS011;65945;53.148;17.956;2023-10-31T10:40:44;7.80;;;5.30;;
77010;SDS011;65945;53.148;17.956;2023-10-31T10:43:13;7.20;;;4.70;;
77010;SDS011;65945;53.148;17.956;2023-10-31T10:45:47;11.40;;;6.60;;
77010;SDS011;65945;53.148;17.956;2023-10-31T10:48:26;9.80;;;6.10;;
77010;SDS011;65945;53.148;17.956;2023-10-31T10:50:59;8.20;;;6.40;;
77010;SDS011;65945;53.148;17.956;2023-10-31T10:53:49;10.90;;;6.60;;
77010;SDS011;65945;53.148;17.956;2023-10-31T10:56:53;9.80;;;6.80;;
77010;SDS011;65945;53.148;17.956;2023-10-31T10:59:28;10.30;;;6.40;;
77010;SDS011;65945;53.148;17.956;2023-10-31T11:02:05;12.00;;;7.60;;
77010;SDS011;65945;53.148;17.956;2023-10-31T11:04:33;9.50;;;6.80;;
77010;SDS011;65945;53.148;17.956;2023-10-31T11:07:01;8.80;;;6.70;;
77010;SDS011;65945;53.148;17.956;2023-10-31T11:09:31;10.40;;;7.00;;
77010;SDS011;65945;53.148;17.956;2023-10-31T11:11:59;10.00;;;6.40;;
77010;SDS011;65945;53.148;17.956;2023-10-31T11:14:26;9.90;;;6.70;;
77010;SDS011;65945;53.148;17.956;2023-10-31T11:16:54;11.00;;;7.50;;
77010;SDS011;65945;53.148;17.956;2023-10-31T11:19:26;10.60;;;7.10;;
77010;SDS011;65945;53.148;17.956;2023-10-31T11:24:21;10.20;;;7.10;;
77010;SDS011;65945;53.148;17.956;2023-10-31T11:26:52;13.80;;;7.20;;
77010;SDS011;65945;53.148;17.956;2023-10-31T11:29:20;13.50;;;7.60;;
77010;SDS011;65945;53.148;17.956;2023-10-31T11:31:46;12.40;;;7.00;;
77010;SDS011;65945;53.148;17.956;2023-10-31T11:34:15;10.50;;;7.20;;
77010;SDS011;65945;53.148;17.956;2023-10-31T11:36:42;9.30;;;6.40;;
77010;SDS011;65945;53.148;17.956;2023-10-31T11:39:13;9.30;;;6.70;;
77010;SDS011;65945;53.148;17.956;2023-10-31T11:41:45;11.30;;;6.90;;
77010;SDS011;65945;53.148;17.956;2023-10-31T11:44:17;10.80;;;5.90;;
77010;SDS011;65945;53.148;17.956;2023-10-31T11:46:44;10.40;;;6.00;;
77010;SDS011;65945;53.148;17.956;2023-10-31T11:49:16;10.80;;;5.40;;
77010;SDS011;65945;53.148;17.956;2023-10-31T11:51:46;11.20;;;4.90;;
77010;SDS011;65945;53.148;17.956;2023-10-31T11:54:14;6.90;;;4.30;;
77010;SDS011;65945;53.148;17.956;2023-10-31T11:56:50;6.40;;;4.00;;
77010;SDS011;65945;53.148;17.956;2023-10-31T11:59:18;8.60;;;4.50;;
77010;SDS011;65945;53.148;17.956;2023-10-31T12:01:45;6.40;;;4.00;;
77010;SDS011;65945;53.148;17.956;2023-10-31T12:04:22;4.30;;;2.90;;
77010;SDS011;65945;53.148;17.956;2023-10-31T12:06:56;4.50;;;2.90;;
77010;SDS011;65945;53.148;17.956;2023-10-31T12:09:24;5.30;;;3.30;;
77010;SDS011;65945;53.148;17.956;2023-10-31T12:11:51;5.00;;;3.50;;
77010;SDS011;65945;53.148;17.956;2023-10-31T12:14:18;4.60;;;3.20;;
77010;SDS011;65945;53.148;17.956;2023-10-31T12:16:46;5.10;;;3.10;;
77010;SDS011;65945;53.148;17.956;2023-10-31T12:19:13;7.30;;;2.90;;
77010;SDS011;65945;53.148;17.956;2023-10-31T12:21:44;3.60;;;2.40;;
77010;SDS011;65945;53.148;17.956;2023-10-31T12:24:17;8.20;;;4.40;;
77010;SDS011;65945;53.148;17.956;2023-10-31T12:26:45;4.80;;;3.10;;
77010;SDS011;65945;53.148;17.956;2023-10-31T12:34:14;6.80;;;4.00;;
77010;SDS011;65945;53.148;17.956;2023-10-31T12:36:42;6.10;;;3.50;;
77010;SDS011;65945;53.148;17.956;2023-10-31T12:39:11;5.60;;;2.60;;
77010;SDS011;65945;53.148;17.956;2023-10-31T12:41:39;6.30;;;3.00;;
77010;SDS011;65945;53.148;17.956;2023-10-31T12:44:07;6.00;;;2.50;;
77010;SDS011;65945;53.148;17.956;2023-10-31T12:46:40;4.50;;;2.30;;
77010;SDS011;65945;53.148;17.956;2023-10-31T12:49:11;6.70;;;2.70;;
77010;SDS011;65945;53.148;17.956;2023-10-31T12:54:34;4.70;;;2.30;;
77010;SDS011;65945;53.148;17.956;2023-10-31T12:57:02;3.50;;;2.10;;
77010;SDS011;65945;53.148;17.956;2023-10-31T12:59:31;6.10;;;2.60;;
77010;SDS011;65945;53.148;17.956;2023-10-31T13:01:58;15.90;;;3.40;;
77010;SDS011;65945;53.148;17.956;2023-10-31T13:04:26;4.90;;;2.00;;
77010;SDS011;65945;53.148;17.956;2023-10-31T13:06:54;4.70;;;2.70;;
77010;SDS011;65945;53.148;17.956;2023-10-31T13:09:28;3.20;;;1.90;;
77010;SDS011;65945;53.148;17.956;2023-10-31T13:12:05;3.00;;;1.70;;
77010;SDS011;65945;53.148;17.956;2023-10-31T13:14:33;4.20;;;2.10;;
77010;SDS011;65945;53.148;17.956;2023-10-31T13:17:01;3.80;;;2.80;;
77010;SDS011;65945;53.148;17.956;2023-10-31T13:19:29;2.00;;;1.20;;
77010;SDS011;65945;53.148;17.956;2023-10-31T13:21:55;4.90;;;2.20;;
77010;SDS011;65945;53.148;17.956;2023-10-31T13:24:22;3.90;;;2.00;;
77010;SDS011;65945;53.148;17.956;2023-10-31T13:26:49;1.80;;;1.30;;
77010;SDS011;65945;53.148;17.956;2023-10-31T13:29:18;2.20;;;1.20;;
77010;SDS011;65945;53.148;17.956;2023-10-31T13:31:45;2.30;;;1.40;;
77010;SDS011;65945;53.148;17.956;2023-10-31T13:34:12;3.60;;;1.70;;
77010;SDS011;65945;53.148;17.956;2023-10-31T13:36:38;4.00;;;2.00;;
77010;SDS011;65945;53.148;17.956;2023-10-31T13:39:05;2.70;;;1.20;;
77010;SDS011;65945;53.148;17.956;2023-10-31T13:41:32;2.90;;;1.60;;
77010;SDS011;65945;53.148;17.956;2023-10-31T13:43:59;5.00;;;2.30;;
77010;SDS011;65945;53.148;17.956;2023-10-31T13:46:25;2.80;;;1.70;;
77010;SDS011;65945;53.148;17.956;2023-10-31T13:48:52;2.00;;;1.50;;
77010;SDS011;65945;53.148;17.956;2023-10-31T13:51:19;2.80;;;1.30;;
77010;SDS011;65945;53.148;17.956;2023-10-31T13:53:45;3.70;;;1.60;;
77010;SDS011;65945;53.148;17.956;2023-10-31T13:56:12;3.30;;;2.00;;
77010;SDS011;65945;53.148;17.956;2023-10-31T13:58:38;2.70;;;1.80;;
77010;SDS011;65945;53.148;17.956;2023-10-31T14:01:05;2.00;;;1.50;;
77010;SDS011;65945;53.148;17.956;2023-10-31T14:03:32;6.00;;;1.70;;
77010;SDS011;65945;53.148;17.956;2023-10-31T14:05:59;3.00;;;1.90;;
77010;SDS011;65945;53.148;17.956;2023-10-31T14:08:26;3.20;;;1.50;;
77010;SDS011;65945;53.148;17.956;2023-10-31T14:10:52;2.50;;;1.40;;
77010;SDS011;65945;53.148;17.956;2023-10-31T14:13:20;4.40;;;2.70;;
77010;SDS011;65945;53.148;17.956;2023-10-31T14:15:47;10.10;;;4.80;;
77010;SDS011;65945;53.148;17.956;2023-10-31T14:18:14;5.50;;;2.70;;
77010;SDS011;65945;53.148;17.956;2023-10-31T14:20:41;7.80;;;4.00;;
77010;SDS011;65945;53.148;17.956;2023-10-31T14:23:08;3.70;;;2.00;;
77010;SDS011;65945;53.148;17.956;2023-10-31T14:25:35;10.30;;;3.60;;
77010;SDS011;65945;53.148;17.956;2023-10-31T14:28:02;2.90;;;1.50;;
77010;SDS011;65945;53.148;17.956;2023-10-31T14:30:30;2.10;;;1.30;;
77010;SDS011;65945;53.148;17.956;2023-10-31T14:32:57;3.70;;;1.30;;